createdAt,value
2022-08-03T00:00:40.304Z,2.10
2022-08-03T00:03:09.016Z,2.10
2022-08-03T00:05:37.971Z,1.90
2022-08-03T00:08:06.639Z,2.08
2022-08-03T00:10:35.505Z,1.98
2022-08-03T00:13:05.635Z,1.70
2022-08-03T00:15:34.511Z,2.03
2022-08-03T00:18:03.043Z,2.10
2022-08-03T00:20:31.805Z,1.83
2022-08-03T00:23:00.635Z,2.13
2022-08-03T00:25:29.382Z,2.00
2022-08-03T00:27:57.994Z,2.10
2022-08-03T00:30:30.763Z,2.00
2022-08-03T00:33:00.637Z,2.00
2022-08-03T00:35:37.157Z,1.80
2022-08-03T00:38:18.068Z,2.22
2022-08-03T00:40:46.919Z,1.90
2022-08-03T00:43:15.546Z,2.42
2022-08-03T00:45:45.807Z,2.00
2022-08-03T00:48:23.311Z,1.83
2022-08-03T00:51:02.358Z,2.20
2022-08-03T00:53:31.361Z,2.58
2022-08-03T00:56:00.425Z,1.92
2022-08-03T00:58:29.119Z,1.77
2022-08-03T01:00:59.352Z,2.15
2022-08-03T01:03:28.031Z,1.98
2022-08-03T01:06:01.689Z,2.30
2022-08-03T01:08:49.554Z,2.00
2022-08-03T01:11:25.207Z,2.13
2022-08-03T01:14:18.874Z,2.20
2022-08-03T01:16:56.851Z,2.28
2022-08-03T01:19:42.757Z,2.38
2022-08-03T01:22:27.002Z,2.00
2022-08-03T01:25:04.217Z,1.85
2022-08-03T01:27:48.194Z,2.38
2022-08-03T01:30:18.548Z,1.88
2022-08-03T01:33:01.131Z,2.08
2022-08-03T01:35:36.729Z,2.13
2022-08-03T01:38:12.652Z,2.28
2022-08-03T01:40:44.613Z,2.03
2022-08-03T01:43:55.200Z,2.30
2022-08-03T01:46:09.808Z,1.77
2022-08-03T01:48:40.900Z,1.90
2022-08-03T01:51:11.038Z,2.00
2022-08-03T01:53:43.748Z,2.10
2022-08-03T01:56:14.480Z,1.98
2022-08-03T01:58:45.433Z,1.95
2022-08-03T02:01:17.785Z,2.00
2022-08-03T02:04:00.510Z,2.42
2022-08-03T02:07:01.831Z,2.33
2022-08-03T02:09:24.663Z,2.00
2022-08-03T02:11:54.747Z,2.30
2022-08-03T02:14:24.538Z,1.88
2022-08-03T02:16:56.486Z,2.25
2022-08-03T02:19:30.320Z,2.10
2022-08-03T02:22:02.044Z,2.40
2022-08-03T02:24:32.873Z,2.40
2022-08-03T02:27:04.943Z,2.30
2022-08-03T02:29:38.854Z,2.03
2022-08-03T02:32:15.867Z,1.92
2022-08-03T02:34:48.637Z,2.63
2022-08-03T02:37:19.997Z,2.60
2022-08-03T02:39:52.063Z,2.00
2022-08-03T02:42:24.287Z,2.10
2022-08-03T02:44:56.429Z,1.95
2022-08-03T02:47:54.515Z,2.05
2022-08-03T02:50:20.992Z,1.90
2022-08-03T02:52:50.787Z,2.10
2022-08-03T02:55:21.202Z,2.03
2022-08-03T02:57:51.247Z,2.15
2022-08-03T03:00:27.573Z,1.80
2022-08-03T03:03:00.937Z,2.00
2022-08-03T03:05:55.278Z,1.75
2022-08-03T03:08:26.269Z,1.80
2022-08-03T03:10:59.320Z,1.90
2022-08-03T03:13:29.652Z,1.83
2022-08-03T03:16:01.024Z,1.90
2022-08-03T03:18:32.609Z,1.83
2022-08-03T03:21:02.593Z,2.00
2022-08-03T03:23:32.584Z,1.85
2022-08-03T03:26:03.447Z,1.70
2022-08-03T03:28:33.498Z,1.90
2022-08-03T03:31:02.424Z,1.70
2022-08-03T03:33:32.502Z,1.80
2022-08-03T03:36:01.661Z,1.90
2022-08-03T03:38:30.464Z,1.83
2022-08-03T03:40:59.549Z,2.28
2022-08-03T03:43:29.389Z,1.88
2022-08-03T03:45:59.737Z,2.00
2022-08-03T03:48:29.055Z,2.05
2022-08-03T03:51:02.597Z,1.83
2022-08-03T03:53:31.314Z,1.90
2022-08-03T03:56:02.548Z,2.08
2022-08-03T03:58:33.139Z,2.00
2022-08-03T04:01:02.495Z,1.90
2022-08-03T04:03:31.259Z,2.00
2022-08-03T04:06:17.981Z,2.15
2022-08-03T04:09:14.034Z,2.10
2022-08-03T04:11:48.612Z,1.83
2022-08-03T04:14:20.808Z,2.03
2022-08-03T04:16:53.343Z,2.20
2022-08-03T04:19:28.406Z,1.92
2022-08-03T04:22:01.310Z,1.80
2022-08-03T04:24:35.013Z,2.00
2022-08-03T04:27:07.682Z,1.80
2022-08-03T04:29:44.762Z,2.28
2022-08-03T04:32:18.587Z,2.08
2022-08-03T04:34:48.038Z,2.10
2022-08-03T04:37:25.594Z,2.17
2022-08-03T04:39:59.693Z,2.33
2022-08-03T04:42:28.899Z,2.25
2022-08-03T04:45:01.374Z,2.35
2022-08-03T04:47:33.751Z,2.17
2022-08-03T04:50:03.178Z,2.33
2022-08-03T04:52:32.520Z,2.30
2022-08-03T04:55:02.997Z,2.40
2022-08-03T04:57:31.593Z,2.30
2022-08-03T05:00:02.938Z,2.08
2022-08-03T05:02:33.706Z,1.83
2022-08-03T05:05:02.292Z,2.65
2022-08-03T05:07:35.473Z,2.15
2022-08-03T05:10:14.757Z,1.98
2022-08-03T05:12:46.224Z,1.95
2022-08-03T05:15:15.192Z,2.30
2022-08-03T05:17:43.886Z,2.20
2022-08-03T05:20:13.434Z,1.90
2022-08-03T05:22:45.190Z,1.95
2022-08-03T05:25:17.766Z,1.70
2022-08-03T05:27:49.284Z,1.80
2022-08-03T05:30:31.392Z,1.80
2022-08-03T05:33:03.853Z,1.70
2022-08-03T05:36:02.769Z,2.03
2022-08-03T05:38:34.358Z,2.10
2022-08-03T05:41:22.724Z,1.70
2022-08-03T05:43:53.694Z,1.70
2022-08-03T05:46:23.051Z,1.67
2022-08-03T05:48:51.789Z,1.40
2022-08-03T05:51:20.425Z,1.67
2022-08-03T05:53:49.065Z,1.60
2022-08-03T05:56:23.488Z,1.60
2022-08-03T05:58:52.419Z,1.58
2022-08-03T06:01:22.820Z,1.50
2022-08-03T06:03:52.100Z,1.40
2022-08-03T06:06:21.189Z,1.33
2022-08-03T06:08:49.799Z,1.23
2022-08-03T06:11:19.846Z,1.38
2022-08-03T06:13:48.492Z,1.20
2022-08-03T06:16:17.110Z,1.42
2022-08-03T06:18:46.028Z,1.27
2022-08-03T06:21:16.391Z,1.35
2022-08-03T06:23:54.397Z,1.35
2022-08-03T06:26:29.059Z,1.35
2022-08-03T06:28:58.206Z,1.30
2022-08-03T06:31:33.018Z,1.50
2022-08-03T06:34:33.671Z,1.40
2022-08-03T06:36:58.616Z,1.50
2022-08-03T06:39:31.221Z,1.20
2022-08-03T06:42:01.337Z,1.45
2022-08-03T06:44:30.023Z,1.38
2022-08-03T06:46:58.663Z,1.25
2022-08-03T06:49:28.138Z,1.20
2022-08-03T06:52:04.955Z,1.10
2022-08-03T06:54:39.985Z,1.20
2022-08-03T06:57:11.680Z,1.38
2022-08-03T07:00:06.415Z,1.35
2022-08-03T07:02:29.360Z,1.25
2022-08-03T07:04:58.708Z,1.13
2022-08-03T07:07:27.326Z,1.33
2022-08-03T07:09:57.775Z,1.20
2022-08-03T07:12:29.688Z,1.38
2022-08-03T07:15:01.704Z,1.10
2022-08-03T07:17:33.362Z,1.17
2022-08-03T07:20:03.729Z,1.30
2022-08-03T07:22:32.323Z,1.30
2022-08-03T07:25:01.311Z,1.27
2022-08-03T07:27:32.304Z,1.17
2022-08-03T07:30:01.116Z,1.10
2022-08-03T07:32:31.480Z,1.00
2022-08-03T07:35:01.464Z,1.30
2022-08-03T07:37:31.444Z,1.20
2022-08-03T07:40:00.534Z,1.20
2022-08-03T07:42:31.590Z,1.15
2022-08-03T07:45:00.767Z,1.02
2022-08-03T07:47:34.977Z,1.08
2022-08-03T07:50:08.769Z,1.10
2022-08-03T07:52:50.593Z,1.00
2022-08-03T07:55:21.490Z,1.20
2022-08-03T07:58:01.191Z,1.05
2022-08-03T08:00:30.138Z,1.20
2022-08-03T08:02:58.915Z,0.90
2022-08-03T08:05:28.384Z,1.00
2022-08-03T08:07:56.945Z,1.13
2022-08-03T08:10:25.722Z,1.25
2022-08-03T08:12:56.538Z,1.20
2022-08-03T08:15:25.882Z,1.15
2022-08-03T08:17:56.130Z,1.00
2022-08-03T08:20:30.855Z,1.10
2022-08-03T08:23:02.925Z,1.20
2022-08-03T08:25:33.497Z,1.15
2022-08-03T08:28:31.803Z,1.20
2022-08-03T08:30:53.050Z,1.10
2022-08-03T08:33:23.317Z,1.10
2022-08-03T08:35:54.062Z,1.00
2022-08-03T08:38:23.286Z,1.10
2022-08-03T08:40:52.144Z,1.20
2022-08-03T08:43:22.090Z,1.23
2022-08-03T08:45:51.736Z,1.13
2022-08-03T08:48:25.599Z,1.20
2022-08-03T08:50:55.548Z,1.15
2022-08-03T08:53:27.815Z,1.08
2022-08-03T08:56:00.865Z,1.15
2022-08-03T08:58:38.680Z,1.15
2022-08-03T09:01:07.878Z,1.10
2022-08-03T09:03:36.899Z,1.02
2022-08-03T09:06:06.783Z,1.10
2022-08-03T09:08:35.687Z,1.10
2022-08-03T09:11:04.400Z,1.13
2022-08-03T09:13:34.571Z,1.30
2022-08-03T09:16:14.612Z,1.20
2022-08-03T09:18:44.294Z,1.20
2022-08-03T09:21:34.196Z,1.20
2022-08-03T09:24:06.311Z,1.00
2022-08-03T09:26:37.114Z,0.80
2022-08-03T09:29:14.798Z,0.93
2022-08-03T09:31:46.418Z,1.10
2022-08-03T09:34:18.282Z,1.00
2022-08-03T09:36:48.929Z,0.80
2022-08-03T09:39:19.431Z,0.95
2022-08-03T09:41:50.100Z,1.10
2022-08-03T09:44:34.708Z,0.82
2022-08-03T09:47:03.700Z,0.88
2022-08-03T09:49:32.616Z,0.95
2022-08-03T09:52:38.239Z,0.90
2022-08-03T09:55:02.408Z,1.00
2022-08-03T09:57:31.882Z,0.90
2022-08-03T10:00:12.075Z,0.98
2022-08-03T10:02:45.726Z,1.00
2022-08-03T10:05:19.805Z,1.00
2022-08-03T10:07:51.042Z,0.80
2022-08-03T10:10:30.467Z,0.95
2022-08-03T10:13:01.336Z,0.90
2022-08-03T10:16:23.842Z,1.00
2022-08-03T10:18:20.199Z,0.85
2022-08-03T10:20:53.459Z,0.80
2022-08-03T10:23:24.963Z,0.95
2022-08-03T10:25:58.368Z,0.90
2022-08-03T10:28:33.415Z,0.90
2022-08-03T10:31:07.650Z,0.90
2022-08-03T10:33:50.232Z,0.93
2022-08-03T10:36:25.236Z,0.90
2022-08-03T10:38:55.171Z,1.02
2022-08-03T10:41:29.951Z,0.90
2022-08-03T10:44:03.915Z,1.20
2022-08-03T10:46:35.558Z,1.02
2022-08-03T10:49:05.273Z,0.90
2022-08-03T10:51:34.609Z,1.08
2022-08-03T10:54:03.532Z,1.10
2022-08-03T10:56:58.621Z,0.98
2022-08-03T11:00:07.413Z,1.10
2022-08-03T11:03:10.053Z,0.90
2022-08-03T11:05:41.962Z,1.00
2022-08-03T11:08:26.818Z,1.00
2022-08-03T11:10:57.513Z,1.00
2022-08-03T11:13:28.348Z,0.90
2022-08-03T11:16:01.606Z,1.00
2022-08-03T11:18:33.223Z,0.85
2022-08-03T11:21:02.080Z,0.70
2022-08-03T11:24:04.233Z,0.93
2022-08-03T11:26:35.134Z,1.00
2022-08-03T11:29:28.939Z,1.00
2022-08-03T11:31:57.704Z,1.00
2022-08-03T11:34:27.859Z,1.10
2022-08-03T11:37:23.693Z,0.90
2022-08-03T11:39:56.955Z,1.00
2022-08-03T11:42:40.465Z,0.80
2022-08-03T11:45:11.005Z,1.00
2022-08-03T11:47:50.498Z,0.80
2022-08-03T11:50:22.527Z,0.90
2022-08-03T11:52:51.912Z,1.00
2022-08-03T11:55:22.717Z,0.98
2022-08-03T11:59:17.904Z,1.00
2022-08-03T12:00:42.050Z,0.80
2022-08-03T12:03:13.801Z,0.93
2022-08-03T12:05:51.151Z,1.00
2022-08-03T12:08:32.617Z,0.90
2022-08-03T12:11:03.178Z,0.85
2022-08-03T12:14:45.351Z,0.85
2022-08-03T12:16:29.648Z,0.80
2022-08-03T12:19:03.692Z,0.88
2022-08-03T12:21:33.853Z,1.10
2022-08-03T12:24:04.327Z,1.00
2022-08-03T12:26:58.323Z,1.05
2022-08-03T12:29:28.946Z,1.05
2022-08-03T12:31:58.135Z,1.00
2022-08-03T12:34:47.334Z,0.90
2022-08-03T12:37:22.677Z,1.10
2022-08-03T12:40:02.347Z,1.00
2022-08-03T12:42:35.655Z,1.10
2022-08-03T12:45:25.594Z,0.90
2022-08-03T12:47:56.508Z,0.90
2022-08-03T12:50:27.084Z,0.90
2022-08-03T12:52:56.426Z,1.00
2022-08-03T12:55:27.607Z,0.95
2022-08-03T12:57:56.262Z,0.93
2022-08-03T13:00:29.359Z,0.90
2022-08-03T13:05:57.382Z,1.00
2022-08-03T13:08:26.871Z,1.00
2022-08-03T13:10:55.686Z,0.80
2022-08-03T13:13:40.301Z,1.15
2022-08-03T13:16:10.317Z,0.90
2022-08-03T13:18:38.899Z,1.10
2022-08-03T13:21:09.984Z,1.00
2022-08-03T13:23:38.569Z,1.20
2022-08-03T13:26:07.271Z,0.93
2022-08-03T13:28:36.010Z,1.00
2022-08-03T13:31:11.055Z,0.82
2022-08-03T13:33:44.902Z,1.00
2022-08-03T13:36:18.789Z,1.00
2022-08-03T13:38:57.443Z,0.85
2022-08-03T13:41:32.333Z,1.00
2022-08-03T13:44:26.634Z,1.10
2022-08-03T13:46:52.241Z,0.90
2022-08-03T13:49:23.271Z,1.05
2022-08-03T13:52:02.235Z,0.88
2022-08-03T13:54:31.325Z,1.00
2022-08-03T13:58:04.731Z,0.90
2022-08-03T13:59:54.892Z,0.85
2022-08-03T14:02:25.115Z,1.10
2022-08-03T14:04:54.668Z,1.00
2022-08-03T14:07:23.197Z,1.08
2022-08-03T14:09:51.752Z,0.95
2022-08-03T14:12:20.402Z,1.15
2022-08-03T14:14:49.000Z,1.00
2022-08-03T14:17:18.475Z,1.02
2022-08-03T14:19:53.353Z,1.00
2022-08-03T14:22:22.783Z,1.05
2022-08-03T14:24:51.354Z,0.95
2022-08-03T14:27:20.326Z,1.00
2022-08-03T14:29:48.999Z,1.05
2022-08-03T14:32:17.672Z,1.00
2022-08-03T14:34:46.290Z,1.00
2022-08-03T14:37:16.431Z,1.00
2022-08-03T14:40:02.394Z,1.00
2022-08-03T14:42:31.889Z,1.17
2022-08-03T14:45:04.611Z,1.10
2022-08-03T14:50:24.350Z,1.00
2022-08-03T14:50:36.559Z,0.90
2022-08-03T14:53:11.096Z,1.05
2022-08-03T14:55:50.813Z,1.15
2022-08-03T14:58:21.871Z,0.82
2022-08-03T15:00:52.445Z,1.10
2022-08-03T15:03:24.947Z,0.90
2022-08-03T15:05:54.930Z,1.00
2022-08-03T15:08:26.559Z,1.00
2022-08-03T15:10:55.702Z,0.90
2022-08-03T15:13:25.299Z,0.88
2022-08-03T15:15:53.922Z,0.93
2022-08-03T15:18:22.683Z,1.00
2022-08-03T15:20:51.314Z,1.00
2022-08-03T15:23:20.097Z,1.13
2022-08-03T15:26:03.703Z,0.93
2022-08-03T15:28:41.109Z,0.95
2022-08-03T15:31:09.725Z,0.85
2022-08-03T15:33:38.531Z,0.80
2022-08-03T15:36:07.891Z,1.00
2022-08-03T15:38:36.501Z,0.73
2022-08-03T15:41:13.485Z,1.00
2022-08-03T15:43:42.668Z,1.00
2022-08-03T15:46:29.271Z,0.80
2022-08-03T15:48:58.409Z,1.10
2022-08-03T15:51:27.051Z,0.90
2022-08-03T15:53:56.189Z,1.08
2022-08-03T15:56:27.135Z,0.90
2022-08-03T15:59:09.687Z,1.00
2022-08-03T16:01:42.395Z,1.08
2022-08-03T16:04:11.092Z,0.90
2022-08-03T16:06:39.714Z,0.80
2022-08-03T16:09:23.918Z,0.90
2022-08-03T16:11:59.108Z,0.80
2022-08-03T16:14:34.434Z,0.90
2022-08-03T16:17:06.789Z,0.98
2022-08-03T16:19:35.507Z,0.75
2022-08-03T16:22:04.536Z,1.00
2022-08-03T16:24:33.400Z,0.80
2022-08-03T16:27:03.388Z,0.85
2022-08-03T16:29:32.048Z,1.10
2022-08-03T16:32:09.352Z,1.20
2022-08-03T16:34:39.278Z,0.82
2022-08-03T16:37:36.482Z,1.08
2022-08-03T16:39:58.422Z,0.82
2022-08-03T16:42:28.672Z,1.10
2022-08-03T16:44:57.616Z,1.05
2022-08-03T16:47:26.699Z,0.90
2022-08-03T16:49:56.783Z,1.00
2022-08-03T16:52:25.956Z,0.90
2022-08-03T16:54:54.880Z,0.90
2022-08-03T16:57:56.427Z,0.95
2022-08-03T17:00:33.288Z,1.00
2022-08-03T17:03:12.486Z,1.00
2022-08-03T17:05:49.498Z,1.17
2022-08-03T17:08:26.857Z,1.10
2022-08-03T17:10:56.691Z,1.00
2022-08-03T17:13:39.417Z,1.00
2022-08-03T17:16:12.154Z,1.30
2022-08-03T17:18:52.435Z,1.00
2022-08-03T17:21:29.318Z,0.80
2022-08-03T17:24:04.784Z,1.20
2022-08-03T17:26:44.816Z,1.00
2022-08-03T17:29:16.703Z,1.02
2022-08-03T17:31:49.763Z,0.90
2022-08-03T17:34:19.328Z,1.05
2022-08-03T17:37:05.765Z,0.90
2022-08-03T17:39:58.100Z,0.77
2022-08-03T17:42:30.343Z,0.85
2022-08-03T17:45:02.447Z,1.10
2022-08-03T17:47:42.529Z,1.20
2022-08-03T17:50:23.930Z,1.38
2022-08-03T17:53:07.873Z,1.17
2022-08-03T17:55:58.919Z,0.98
2022-08-03T17:58:52.407Z,1.10
2022-08-03T18:02:02.788Z,1.00
2022-08-03T18:04:40.593Z,0.90
2022-08-03T18:07:12.887Z,0.90
2022-08-03T18:10:04.808Z,1.10
2022-08-03T18:12:52.029Z,1.00
2022-08-03T18:15:27.685Z,0.90
2022-08-03T18:18:03.411Z,1.00
2022-08-03T18:20:42.647Z,1.17
2022-08-03T18:23:25.106Z,0.85
2022-08-03T18:26:06.760Z,1.70
2022-08-03T18:28:38.415Z,1.08
2022-08-03T18:31:07.791Z,1.00
2022-08-03T18:34:17.380Z,1.13
2022-08-03T18:36:31.933Z,1.10
2022-08-03T18:39:03.879Z,1.13
2022-08-03T18:41:34.605Z,1.33
2022-08-03T18:44:08.185Z,1.52
2022-08-03T18:46:54.910Z,1.40
2022-08-03T18:49:36.087Z,1.15
2022-08-03T18:52:15.824Z,1.30
2022-08-03T18:55:01.091Z,1.20
2022-08-03T18:57:40.356Z,1.20
2022-08-03T19:00:14.103Z,1.10
2022-08-03T19:02:49.751Z,1.27
2022-08-03T19:05:21.619Z,1.20
2022-08-03T19:07:59.915Z,1.40
2022-08-03T19:10:34.147Z,1.00
2022-08-03T19:13:11.309Z,1.43
2022-08-03T19:15:51.255Z,1.13
2022-08-03T19:18:22.292Z,1.20
2022-08-03T19:20:54.652Z,1.20
2022-08-03T19:26:29.916Z,1.30
2022-08-03T19:29:03.527Z,1.35
2022-08-03T19:31:34.910Z,1.10
2022-08-03T19:34:04.220Z,1.10
2022-08-03T19:36:40.374Z,1.20
2022-08-03T19:39:10.832Z,2.25
2022-08-03T19:41:42.348Z,1.15
2022-08-03T19:44:20.115Z,1.60
2022-08-03T19:46:55.137Z,1.50
2022-08-03T19:50:04.698Z,1.20
2022-08-03T19:52:24.452Z,1.20
2022-08-03T19:55:04.323Z,1.30
2022-08-03T19:57:34.790Z,1.02
2022-08-03T20:00:06.256Z,1.20
2022-08-03T20:02:35.741Z,1.30
2022-08-03T20:05:04.834Z,1.33
2022-08-03T20:07:48.182Z,1.10
2022-08-03T20:10:19.906Z,1.13
2022-08-03T20:12:50.021Z,1.30
2022-08-03T20:15:31.205Z,1.10
2022-08-03T20:18:01.090Z,1.25
2022-08-03T20:20:31.601Z,1.40
2022-08-03T20:25:59.136Z,8.35
2022-08-03T20:28:50.519Z,2.83
2022-08-03T20:31:32.093Z,6.45
2022-08-03T20:34:05.250Z,3.30
2022-08-03T20:36:34.187Z,2.70
2022-08-03T20:39:07.810Z,1.77
2022-08-03T20:41:39.031Z,1.75
2022-08-03T20:44:07.999Z,1.48
2022-08-03T20:46:53.124Z,1.70
2022-08-03T20:49:27.342Z,1.40
2022-08-03T20:51:56.163Z,1.60
2022-08-03T20:54:30.826Z,1.60
2022-08-03T20:57:03.788Z,1.48
2022-08-03T20:59:50.109Z,1.70
2022-08-03T21:02:29.563Z,1.70
2022-08-03T21:05:03.255Z,1.50
2022-08-03T21:08:05.438Z,1.67
2022-08-03T21:10:32.298Z,1.58
2022-08-03T21:13:02.097Z,1.10
2022-08-03T21:13:03.879Z,2.90
2022-08-03T21:16:11.742Z,1.60
2022-08-03T21:18:46.336Z,1.40
2022-08-03T21:21:17.023Z,1.60
2022-08-03T21:23:49.546Z,1.65
2022-08-03T21:26:20.000Z,1.50
2022-08-03T21:28:51.474Z,1.85
2022-08-03T21:31:25.226Z,1.48
2022-08-03T21:33:56.729Z,1.73
2022-08-03T21:36:27.648Z,1.45
2022-08-03T21:38:57.453Z,1.40
2022-08-03T21:41:27.398Z,1.77
2022-08-03T21:43:58.008Z,1.55
2022-08-03T21:46:28.259Z,1.85
2022-08-03T21:50:05.758Z,1.60
2022-08-03T21:51:53.764Z,1.60
2022-08-03T21:54:24.996Z,1.60
2022-08-03T21:56:55.864Z,1.58
2022-08-03T21:59:26.735Z,1.67
2022-08-03T22:01:58.611Z,2.00
2022-08-03T22:04:42.700Z,1.67
2022-08-03T22:07:18.325Z,1.50
2022-08-03T22:09:50.949Z,1.50
2022-08-03T22:12:23.676Z,1.40
2022-08-03T22:15:00.534Z,1.60
2022-08-03T22:17:56.334Z,1.60
2022-08-03T22:20:21.640Z,1.40
2022-08-03T22:22:56.463Z,1.60
2022-08-03T22:25:30.486Z,1.70
2022-08-03T22:28:01.620Z,1.58
2022-08-03T22:30:34.203Z,1.60
2022-08-03T22:33:05.169Z,1.60
2022-08-03T22:35:46.436Z,1.35
2022-08-03T22:38:17.552Z,1.63
2022-08-03T22:40:48.052Z,1.80
2022-08-03T22:43:17.275Z,1.55
2022-08-03T22:46:09.023Z,1.70
2022-08-03T22:48:41.410Z,1.73
2022-08-03T22:51:11.348Z,1.58
2022-08-03T22:53:41.542Z,1.50
2022-08-03T22:56:10.908Z,1.48
2022-08-03T22:58:39.522Z,1.55
2022-08-03T23:01:11.480Z,1.65
2022-08-03T23:03:58.703Z,1.77
2022-08-03T23:06:35.545Z,1.77
2022-08-03T23:09:07.967Z,1.50
2022-08-03T23:11:42.815Z,1.58
2022-08-03T23:14:17.164Z,1.73
2022-08-03T23:16:48.681Z,1.73
2022-08-03T23:19:24.978Z,1.65
2022-08-03T23:22:03.599Z,1.50
2022-08-03T23:24:36.040Z,1.40
2022-08-03T23:27:05.543Z,1.67
2022-08-03T23:29:36.023Z,1.45
2022-08-03T23:32:07.196Z,1.67
2022-08-03T23:34:56.970Z,1.52
2022-08-03T23:37:26.850Z,1.50
2022-08-03T23:39:58.129Z,1.52
2022-08-03T23:42:27.283Z,1.40
2022-08-03T23:45:05.841Z,1.55
2022-08-03T23:47:46.667Z,1.50
2022-08-03T23:50:16.035Z,1.42
2022-08-03T23:52:56.180Z,1.30
2022-08-03T23:55:41.419Z,1.23
2022-08-03T23:58:20.309Z,1.42
